Tallinn, Estonia
Current Conditions -  °F | °C
As of 2:20 AM on Tuesday 23 Dec 2014 (Local Time) from EETN Reporting Station
Light Snow Light Snow  
Wind Chill: -7°   Ceiling: 400
Heat Index: -2°   Visibility: 4mi
Dew Point: -2°   Wind: 9mph
Humidity: 100%   Direction: 50°NE
Pressure: 28.97"   Gusts: NA
Location:  59.44°N, 24.74°E
Report Text: EETN 222320Z 05008KT 7000 -SN OVC004 M02/M02 Q0981 R08/490493
Loading
Personal Weather Stations






























Interactive Weather Map New forecast layout! Learn more

10-Day Weather Forecast

Advertisements
Track Severe Weather on mobile